createdAt,value
2019-01-13T00:02:13.621Z,96656.06
2019-01-13T00:04:44.007Z,96646.27
2019-01-13T00:07:14.684Z,96645.83
2019-01-13T00:09:45.079Z,96651.03
2019-01-13T00:12:15.677Z,96646.74
2019-01-13T00:14:45.928Z,96654.48
2019-01-13T00:17:16.230Z,96638.80
2019-01-13T00:19:46.529Z,96638.20
2019-01-13T00:22:17.035Z,96643.80
2019-01-13T00:24:47.640Z,96638.92
2019-01-13T00:27:17.945Z,96638.80
2019-01-13T00:29:48.231Z,96643.84
2019-01-13T00:32:18.699Z,96643.33
2019-01-13T00:34:51.313Z,96643.72
2019-01-13T00:37:21.915Z,96644.95
2019-01-13T00:39:52.283Z,96649.67
2019-01-13T00:42:22.648Z,96652.22
2019-01-13T00:44:52.969Z,96649.87
2019-01-13T00:47:23.197Z,96639.39
2019-01-13T00:49:53.584Z,96636.56
2019-01-13T00:52:24.063Z,96635.60
2019-01-13T00:54:54.453Z,96635.44
2019-01-13T00:57:24.745Z,96641.91
2019-01-13T00:59:55.047Z,96651.88
2019-01-13T01:02:25.477Z,96654.81
2019-01-13T01:04:55.862Z,96650.60
2019-01-13T01:07:26.419Z,96655.73
2019-01-13T01:09:56.764Z,96649.33
2019-01-13T01:12:27.485Z,96642.91
2019-01-13T01:14:58.537Z,96648.06
2019-01-13T01:17:29.027Z,96648.77
2019-01-13T01:19:59.477Z,96657.23
2019-01-13T01:22:29.978Z,96648.81
2019-01-13T01:25:00.614Z,96656.95
2019-01-13T01:27:30.999Z,96647.66
2019-01-13T01:30:01.205Z,96650.20
2019-01-13T01:32:31.567Z,96648.94
2019-01-13T01:35:02.393Z,96644.86
2019-01-13T01:37:32.734Z,96650.77
2019-01-13T01:40:03.101Z,96662.42
2019-01-13T01:42:33.545Z,96659.16
2019-01-13T01:45:04.487Z,96661.73
2019-01-13T01:47:34.835Z,96663.13
2019-01-13T01:50:06.110Z,96662.38
2019-01-13T01:52:36.475Z,96672.11
2019-01-13T01:55:10.114Z,96665.59
2019-01-13T01:57:40.731Z,96657.70
2019-01-13T02:00:19.152Z,96660.59
2019-01-13T02:02:49.633Z,96660.68
2019-01-13T02:05:20.165Z,96666.59
2019-01-13T02:07:50.621Z,96659.02
2019-01-13T02:10:24.089Z,96662.42
2019-01-13T02:12:54.458Z,96659.18
2019-01-13T02:15:28.945Z,96668.98
2019-01-13T02:17:59.313Z,96675.69
2019-01-13T02:20:29.912Z,96672.23
2019-01-13T02:23:00.614Z,96673.10
2019-01-13T02:25:31.267Z,96670.63
2019-01-13T02:28:01.630Z,96669.23
2019-01-13T02:30:32.348Z,96665.59
2019-01-13T02:33:02.809Z,96662.90
2019-01-13T02:35:33.220Z,96668.81
2019-01-13T02:38:03.991Z,96660.36
2019-01-13T02:40:34.232Z,96666.40
2019-01-13T02:43:04.579Z,96656.41
2019-01-13T02:45:34.858Z,96661.09
2019-01-13T02:48:05.298Z,96663.04
2019-01-13T02:50:35.551Z,96666.77
2019-01-13T02:53:05.969Z,96664.70
2019-01-13T02:55:36.735Z,96663.08
2019-01-13T02:58:07.192Z,96663.95
2019-01-13T03:00:37.545Z,96657.20
2019-01-13T03:03:07.964Z,96652.61
2019-01-13T03:05:38.326Z,96655.67
2019-01-13T03:08:08.988Z,96651.58
2019-01-13T03:10:39.243Z,96658.09
2019-01-13T03:13:09.347Z,96655.23
2019-01-13T03:15:39.525Z,96658.77
2019-01-13T03:18:10.172Z,96654.60
2019-01-13T03:20:40.388Z,96659.28
2019-01-13T03:23:10.776Z,96663.49
2019-01-13T03:25:41.025Z,96648.69
2019-01-13T03:28:11.203Z,96654.60
2019-01-13T03:30:41.794Z,96653.84
2019-01-13T03:33:12.052Z,96650.31
2019-01-13T03:35:42.503Z,96649.36
2019-01-13T03:38:12.743Z,96647.69
2019-01-13T03:40:43.006Z,96649.41
2019-01-13T03:43:13.730Z,96649.05
2019-01-13T03:45:43.914Z,96640.63
2019-01-13T03:48:14.492Z,96639.36
2019-01-13T03:50:44.812Z,96630.15
2019-01-13T03:53:15.409Z,96631.93
2019-01-13T03:55:45.943Z,96627.25
2019-01-13T03:58:16.199Z,96623.39
2019-01-13T04:00:46.359Z,96629.28
2019-01-13T04:03:16.527Z,96640.38
2019-01-13T04:05:46.785Z,96636.58
2019-01-13T04:08:17.121Z,96631.93
2019-01-13T04:10:47.365Z,96626.56
2019-01-13T04:13:17.531Z,96633.76
2019-01-13T04:16:14.187Z,96634.59
2019-01-13T04:18:44.383Z,96635.86
2019-01-13T04:21:14.663Z,96643.84
2019-01-13T04:23:44.821Z,96640.31
2019-01-13T04:26:15.007Z,96642.49
2019-01-13T04:28:45.191Z,96634.03
2019-01-13T04:31:15.353Z,96639.44
2019-01-13T04:33:45.548Z,96639.80
2019-01-13T04:36:15.871Z,96643.56
2019-01-13T04:38:46.213Z,96643.17
2019-01-13T04:41:16.735Z,96640.27
2019-01-13T04:43:47.236Z,96630.55
2019-01-13T04:46:17.327Z,96629.23
2019-01-13T04:48:47.433Z,96625.38
2019-01-13T04:51:18.057Z,96628.36
2019-01-13T04:53:48.180Z,96624.63
2019-01-13T04:56:18.733Z,96625.54
2019-01-13T04:58:48.854Z,96626.69
2019-01-13T05:01:19.445Z,96628.08
2019-01-13T05:03:49.623Z,96625.34
2019-01-13T05:06:19.894Z,96630.42
2019-01-13T05:08:50.101Z,96626.20
2019-01-13T05:11:20.779Z,96616.87
2019-01-13T05:13:50.910Z,96616.95
2019-01-13T05:16:21.015Z,96628.67
2019-01-13T05:18:51.203Z,96628.75
2019-01-13T05:21:21.819Z,96624.42
2019-01-13T05:23:51.928Z,96613.79
2019-01-13T05:26:22.180Z,96622.24
2019-01-13T05:28:52.301Z,96621.41
2019-01-13T05:31:22.415Z,96624.42
2019-01-13T05:33:52.607Z,96630.02
2019-01-13T05:36:22.770Z,96626.25
2019-01-13T05:38:53.127Z,96632.72
2019-01-13T05:41:23.817Z,96622.98
2019-01-13T05:43:53.907Z,96617.75
2019-01-13T05:46:24.265Z,96627.16
2019-01-13T05:48:54.447Z,96619.89
2019-01-13T05:51:24.887Z,96607.19
2019-01-13T05:53:55.057Z,96619.89
2019-01-13T05:56:25.236Z,96626.28
2019-01-13T05:58:55.599Z,96615.72
2019-01-13T06:01:26.155Z,96620.56
2019-01-13T06:03:56.350Z,96617.26
2019-01-13T06:06:26.610Z,96607.61
2019-01-13T06:08:56.801Z,96602.77
2019-01-13T06:11:27.181Z,96602.81
2019-01-13T06:13:57.477Z,96610.87
2019-01-13T06:16:27.671Z,96606.70
2019-01-13T06:18:58.190Z,96601.18
2019-01-13T06:21:28.451Z,96601.25
2019-01-13T06:23:58.637Z,96605.06
2019-01-13T06:26:28.890Z,96607.20
2019-01-13T06:28:59.068Z,96595.41
2019-01-13T06:31:29.168Z,96603.07
2019-01-13T06:34:05.724Z,96602.31
2019-01-13T06:36:36.073Z,96597.19
2019-01-13T06:39:09.032Z,96590.84
2019-01-13T06:41:39.243Z,96587.57
2019-01-13T06:44:09.420Z,96590.55
2019-01-13T06:46:39.688Z,96583.18
2019-01-13T06:49:09.944Z,96588.16
2019-01-13T06:51:40.413Z,96590.81
2019-01-13T06:54:11.058Z,96595.78
2019-01-13T06:56:41.273Z,96595.92
2019-01-13T06:59:11.777Z,96595.85
2019-01-13T07:01:42.026Z,96590.77
2019-01-13T07:04:12.293Z,96592.48
2019-01-13T07:06:42.479Z,96600.17
2019-01-13T07:09:12.598Z,96598.98
2019-01-13T07:11:42.861Z,96598.94
2019-01-13T07:14:13.034Z,96595.13
2019-01-13T07:16:43.157Z,96585.00
2019-01-13T07:19:13.527Z,96582.52
2019-01-13T07:21:43.803Z,96585.91
2019-01-13T07:24:13.898Z,96593.53
2019-01-13T07:26:44.146Z,96590.95
2019-01-13T07:29:14.567Z,96595.23
2019-01-13T07:31:44.819Z,96586.34
2019-01-13T07:34:15.074Z,96571.92
2019-01-13T07:36:45.700Z,96573.55
2019-01-13T07:39:15.812Z,96580.75
2019-01-13T07:41:46.017Z,96581.69
2019-01-13T07:44:17.536Z,96573.63
2019-01-13T07:46:48.170Z,96568.98
2019-01-13T07:49:18.357Z,96563.89
2019-01-13T07:51:48.695Z,96556.77
2019-01-13T07:54:18.863Z,96557.23
2019-01-13T07:56:49.107Z,96560.00
2019-01-13T07:59:19.208Z,96557.59
2019-01-13T08:01:49.503Z,96550.37
2019-01-13T08:04:20.157Z,96552.28
2019-01-13T08:06:50.381Z,96544.86
2019-01-13T08:09:20.530Z,96541.22
2019-01-13T08:11:51.310Z,96548.84
2019-01-13T08:14:21.660Z,96543.66
2019-01-13T08:16:52.216Z,96549.25
2019-01-13T08:19:22.662Z,96554.07
2019-01-13T08:21:52.967Z,96550.72
2019-01-13T08:24:23.308Z,96540.68
2019-01-13T08:26:53.865Z,96540.31
2019-01-13T08:29:24.000Z,96542.28
2019-01-13T08:31:54.243Z,96539.27
2019-01-13T08:34:24.431Z,96537.12
2019-01-13T08:36:55.023Z,96538.53
2019-01-13T08:39:25.479Z,96539.81
2019-01-13T08:41:55.583Z,96542.86
2019-01-13T08:44:25.691Z,96538.70
2019-01-13T08:46:55.783Z,96538.73
2019-01-13T08:49:26.146Z,96534.98
2019-01-13T08:51:56.415Z,96531.10
2019-01-13T08:54:26.868Z,96526.52
2019-01-13T08:56:57.264Z,96536.76
2019-01-13T08:59:27.745Z,96537.12
2019-01-13T09:01:58.156Z,96526.48
2019-01-13T09:04:28.799Z,96527.28
2019-01-13T09:06:59.046Z,96534.52
2019-01-13T09:09:30.242Z,96526.95
2019-01-13T09:12:00.881Z,96523.13
2019-01-13T09:14:31.051Z,96522.27
2019-01-13T09:17:01.419Z,96513.12
2019-01-13T09:19:31.602Z,96499.55
2019-01-13T09:22:01.968Z,96502.23
2019-01-13T09:24:32.210Z,96496.67
2019-01-13T09:27:02.711Z,96495.92
2019-01-13T09:29:33.263Z,96479.38
2019-01-13T09:32:03.433Z,96482.09
2019-01-13T09:34:33.605Z,96468.98
2019-01-13T09:37:03.933Z,96471.87
2019-01-13T09:39:34.358Z,96461.28
2019-01-13T09:42:04.779Z,96449.45
2019-01-13T09:44:35.046Z,96446.97
2019-01-13T09:47:05.310Z,96456.44
2019-01-13T09:49:35.852Z,96455.95
2019-01-13T09:52:06.191Z,96445.36
2019-01-13T09:54:36.414Z,96441.56
2019-01-13T09:57:06.667Z,96445.02
2019-01-13T09:59:37.073Z,96439.83
2019-01-13T10:02:07.929Z,96432.25
2019-01-13T10:04:38.558Z,96425.55
2019-01-13T10:07:08.818Z,96410.01
2019-01-13T10:09:39.092Z,96410.85
2019-01-13T10:12:09.668Z,96399.39
2019-01-13T10:14:40.114Z,96392.66
2019-01-13T10:17:10.634Z,96395.63
2019-01-13T10:19:40.830Z,96385.50
2019-01-13T10:22:11.403Z,96387.94
2019-01-13T10:24:41.701Z,96391.00
2019-01-13T10:27:11.922Z,96384.61
2019-01-13T10:29:42.182Z,96369.67
2019-01-13T10:32:12.440Z,96375.23
2019-01-13T10:34:42.653Z,96373.15
2019-01-13T10:37:12.978Z,96360.63
2019-01-13T10:39:43.093Z,96364.91
2019-01-13T10:42:14.175Z,96351.28
2019-01-13T10:44:44.671Z,96346.70
2019-01-13T10:47:14.760Z,96340.72
2019-01-13T10:49:44.860Z,96336.92
2019-01-13T10:52:15.474Z,96338.28
2019-01-13T10:54:45.658Z,96323.30
2019-01-13T10:57:16.160Z,96325.36
2019-01-13T10:59:46.420Z,96328.37
2019-01-13T11:02:16.732Z,96320.27
2019-01-13T11:04:47.066Z,96313.88
2019-01-13T11:07:17.196Z,96305.39
2019-01-13T11:09:47.799Z,96309.16
2019-01-13T11:12:18.044Z,96309.08
2019-01-13T11:14:48.188Z,96308.98
2019-01-13T11:17:18.967Z,96299.30
2019-01-13T11:19:49.243Z,96294.45
2019-01-13T11:22:19.854Z,96290.66
2019-01-13T11:24:50.131Z,96286.33
2019-01-13T11:27:20.353Z,96276.03
2019-01-13T11:29:50.541Z,96247.55
2019-01-13T11:32:21.326Z,96236.09
2019-01-13T11:34:51.494Z,96227.52
2019-01-13T11:37:21.814Z,96215.57
2019-01-13T11:39:51.963Z,96220.31
2019-01-13T11:42:22.766Z,96211.81
2019-01-13T11:44:53.069Z,96196.48
2019-01-13T11:47:23.698Z,96206.75
2019-01-13T11:49:53.955Z,96202.50
2019-01-13T11:52:24.433Z,96199.88
2019-01-13T11:54:54.671Z,96184.61
2019-01-13T11:57:25.270Z,96185.04
2019-01-13T11:59:55.505Z,96169.21
2019-01-13T12:02:32.414Z,96174.70
2019-01-13T12:04:57.653Z,96162.28
2019-01-13T12:07:28.950Z,96167.29
2019-01-13T12:09:59.259Z,96160.41
2019-01-13T12:12:30.092Z,96155.25
2019-01-13T12:15:00.559Z,96156.62
2019-01-13T12:17:30.848Z,96137.52
2019-01-13T12:20:01.122Z,96142.09
2019-01-13T12:22:31.371Z,96139.55
2019-01-13T12:25:01.788Z,96139.45
2019-01-13T12:27:32.059Z,96137.60
2019-01-13T12:30:02.299Z,96135.84
2019-01-13T12:32:32.827Z,96134.52
2019-01-13T12:35:04.644Z,96130.14
2019-01-13T12:37:34.918Z,96115.66
2019-01-13T12:40:07.347Z,96108.36
2019-01-13T12:42:37.877Z,96109.58
2019-01-13T12:45:09.265Z,96102.70
2019-01-13T12:47:40.884Z,96106.44
2019-01-13T12:50:18.988Z,96085.94
2019-01-13T12:52:49.554Z,96100.98
2019-01-13T12:55:19.962Z,96088.86
2019-01-13T12:57:50.615Z,96085.80
2019-01-13T13:00:21.684Z,96084.88
2019-01-13T13:02:52.313Z,96078.79
2019-01-13T13:05:22.783Z,96060.72
2019-01-13T13:07:53.041Z,96061.00
2019-01-13T13:10:44.685Z,96066.43
2019-01-13T13:13:15.678Z,96047.27
2019-01-13T13:15:46.387Z,96049.43
2019-01-13T13:18:16.669Z,96039.56
2019-01-13T13:20:47.009Z,96038.66
2019-01-13T13:23:17.375Z,96036.07
2019-01-13T13:25:48.060Z,96029.37
2019-01-13T13:28:19.189Z,96015.88
2019-01-13T13:30:49.589Z,96021.38
2019-01-13T13:33:19.923Z,96010.45
2019-01-13T13:35:50.201Z,96009.27
2019-01-13T13:38:23.558Z,96008.05
2019-01-13T13:40:53.731Z,96000.52
2019-01-13T13:43:32.562Z,95989.61
2019-01-13T13:46:04.729Z,95988.93
2019-01-13T13:48:34.961Z,95981.83
2019-01-13T13:51:05.717Z,95977.70
2019-01-13T13:53:35.973Z,95978.61
2019-01-13T13:56:06.660Z,95981.66
2019-01-13T13:58:36.919Z,95977.55
2019-01-13T14:01:07.794Z,95963.15
2019-01-13T14:03:38.153Z,95956.50
2019-01-13T14:06:08.488Z,95945.11
2019-01-13T14:08:38.694Z,95925.82
2019-01-13T14:11:09.038Z,95924.67
2019-01-13T14:13:39.321Z,95915.39
2019-01-13T14:16:09.581Z,95905.34
2019-01-13T14:18:40.156Z,95910.20
2019-01-13T14:21:10.417Z,95910.19
2019-01-13T14:23:40.802Z,95911.00
2019-01-13T14:26:11.253Z,95906.06
2019-01-13T14:28:41.644Z,95901.77
2019-01-13T14:31:11.905Z,95903.47
2019-01-13T14:33:42.946Z,95888.74
2019-01-13T14:36:13.511Z,95878.66
2019-01-13T14:38:43.844Z,95874.56
2019-01-13T14:41:14.196Z,95870.36
2019-01-13T14:43:44.711Z,95858.92
2019-01-13T14:46:15.320Z,95859.78
2019-01-13T14:48:45.589Z,95864.02
2019-01-13T14:51:16.037Z,95861.94
2019-01-13T14:53:46.573Z,95837.77
2019-01-13T14:56:16.796Z,95827.75
2019-01-13T14:58:47.208Z,95830.78
2019-01-13T15:01:17.313Z,95837.24
2019-01-13T15:03:47.821Z,95821.97
2019-01-13T15:06:18.102Z,95807.13
2019-01-13T15:08:48.282Z,95804.09
2019-01-13T15:11:33.690Z,95810.59
2019-01-13T15:14:15.987Z,95802.88
2019-01-13T15:16:47.898Z,95798.27
2019-01-13T15:19:22.332Z,95801.23
2019-01-13T15:22:10.371Z,95797.94
2019-01-13T15:24:41.123Z,95772.59
2019-01-13T15:27:12.992Z,95784.92
2019-01-13T15:29:43.641Z,95794.48
2019-01-13T15:32:17.590Z,95800.02
2019-01-13T15:34:51.532Z,95799.64
2019-01-13T15:37:27.667Z,95800.56
2019-01-13T15:40:05.471Z,95785.84
2019-01-13T15:42:41.859Z,95794.68
2019-01-13T15:45:21.579Z,95781.56
2019-01-13T15:47:52.476Z,95792.30
2019-01-13T15:50:30.350Z,95777.36
2019-01-13T15:53:04.399Z,95774.02
2019-01-13T15:55:45.598Z,95784.19
2019-01-13T15:58:43.893Z,95760.60
2019-01-13T16:01:05.591Z,95764.72
2019-01-13T16:03:36.169Z,95757.15
2019-01-13T16:06:06.528Z,95753.25
2019-01-13T16:08:36.705Z,95747.34
2019-01-13T16:11:07.115Z,95746.97
2019-01-13T16:13:37.360Z,95732.53
2019-01-13T16:16:07.629Z,95735.97
2019-01-13T16:18:37.966Z,95713.92
2019-01-13T16:21:08.376Z,95713.52
2019-01-13T16:23:40.211Z,95714.39
2019-01-13T16:26:10.331Z,95697.86
2019-01-13T16:28:40.520Z,95700.02
2019-01-13T16:31:13.753Z,95708.10
2019-01-13T16:33:44.295Z,95703.94
2019-01-13T16:36:14.531Z,95704.36
2019-01-13T16:38:44.961Z,95706.96
2019-01-13T16:41:15.159Z,95708.28
2019-01-13T16:43:45.887Z,95700.66
2019-01-13T16:46:16.062Z,95710.50
2019-01-13T16:48:46.257Z,95709.28
2019-01-13T16:51:16.523Z,95703.34
2019-01-13T16:53:47.118Z,95699.16
2019-01-13T16:56:17.430Z,95691.22
2019-01-13T16:58:47.677Z,95682.73
2019-01-13T17:01:17.948Z,95671.78
2019-01-13T17:03:51.116Z,95669.23
2019-01-13T17:06:21.328Z,95657.87
2019-01-13T17:08:51.811Z,95668.48
2019-01-13T17:11:22.022Z,95668.41
2019-01-13T17:14:08.361Z,95663.44
2019-01-13T17:16:44.054Z,95653.64
2019-01-13T17:19:17.232Z,95657.42
2019-01-13T17:21:47.470Z,95656.25
2019-01-13T17:24:17.666Z,95647.73
2019-01-13T17:26:47.878Z,95635.45
2019-01-13T17:29:18.541Z,95626.16
2019-01-13T17:31:48.694Z,95631.72
2019-01-13T17:34:19.022Z,95621.94
2019-01-13T17:36:49.202Z,95626.17
2019-01-13T17:39:19.446Z,95624.08
2019-01-13T17:41:49.714Z,95619.84
2019-01-13T17:44:20.273Z,95613.44
2019-01-13T17:46:50.526Z,95599.01
2019-01-13T17:49:20.864Z,95597.73
2019-01-13T17:51:51.423Z,95598.59
2019-01-13T17:54:26.446Z,95600.38
2019-01-13T17:56:56.568Z,95602.91
2019-01-13T17:59:29.662Z,95612.29
2019-01-13T18:02:04.630Z,95611.47
2019-01-13T18:04:34.955Z,95604.73
2019-01-13T18:07:07.191Z,95594.08
2019-01-13T18:09:37.402Z,95596.59
2019-01-13T18:12:11.530Z,95590.70
2019-01-13T18:14:41.745Z,95600.04
2019-01-13T18:17:11.994Z,95593.70
2019-01-13T18:19:42.213Z,95595.80
2019-01-13T18:22:12.793Z,95594.12
2019-01-13T18:24:46.093Z,95583.47
2019-01-13T18:27:18.557Z,95584.33
2019-01-13T18:29:51.149Z,95574.63
2019-01-13T18:32:21.482Z,95584.83
2019-01-13T18:34:51.931Z,95583.55
2019-01-13T18:37:22.141Z,95571.70
2019-01-13T18:39:53.307Z,95579.35
2019-01-13T18:42:23.406Z,95566.19
2019-01-13T18:44:53.519Z,95552.55
2019-01-13T18:47:23.684Z,95558.98
2019-01-13T18:50:02.686Z,95548.38
2019-01-13T18:52:34.119Z,95558.58
2019-01-13T18:55:08.442Z,95539.86
2019-01-13T18:57:38.613Z,95532.28
2019-01-13T19:00:13.857Z,95540.31
2019-01-13T19:02:44.127Z,95517.84
2019-01-13T19:05:15.996Z,95530.17
2019-01-13T19:07:46.251Z,95518.34
2019-01-13T19:10:51.798Z,95512.35
2019-01-13T19:13:59.097Z,95511.49
2019-01-13T19:16:34.349Z,95515.34
2019-01-13T19:19:04.725Z,95510.22
2019-01-13T19:22:01.044Z,95503.89
2019-01-13T19:24:31.217Z,95507.25
2019-01-13T19:27:01.530Z,95509.86
2019-01-13T19:29:32.536Z,95497.05
2019-01-13T19:32:02.806Z,95496.27
2019-01-13T19:34:33.079Z,95492.86
2019-01-13T19:37:03.339Z,95482.23
2019-01-13T19:39:34.025Z,95486.56
2019-01-13T19:42:04.546Z,95483.14
2019-01-13T19:44:35.058Z,95475.89
2019-01-13T19:47:05.473Z,95473.34
2019-01-13T19:49:35.667Z,95456.34
2019-01-13T19:52:06.137Z,95450.39
2019-01-13T19:54:36.394Z,95441.44
2019-01-13T19:57:06.840Z,95440.19
2019-01-13T19:59:37.115Z,95437.22
2019-01-13T20:02:07.652Z,95439.38
2019-01-13T20:04:37.873Z,95428.75
2019-01-13T20:07:08.593Z,95426.20
2019-01-13T20:09:39.210Z,95430.87
2019-01-13T20:12:09.567Z,95440.66
2019-01-13T20:14:39.741Z,95424.48
2019-01-13T20:17:10.330Z,95413.00
2019-01-13T20:19:40.580Z,95426.20
2019-01-13T20:22:11.008Z,95424.52
2019-01-13T20:24:41.266Z,95421.10
2019-01-13T20:27:11.362Z,95423.68
2019-01-13T20:29:41.798Z,95429.17
2019-01-13T20:32:12.335Z,95429.63
2019-01-13T20:34:42.602Z,95437.70
2019-01-13T20:37:13.131Z,95415.15
2019-01-13T20:39:43.374Z,95431.75
2019-01-13T20:42:13.576Z,95429.19
2019-01-13T20:44:44.143Z,95426.58
2019-01-13T20:47:14.593Z,95429.98
2019-01-13T20:49:47.106Z,95425.31
2019-01-13T20:52:17.840Z,95432.53
2019-01-13T20:54:48.251Z,95436.36
2019-01-13T20:57:18.605Z,95450.37
2019-01-13T20:59:49.339Z,95454.17
2019-01-13T21:02:19.974Z,95438.01
2019-01-13T21:04:50.141Z,95440.59
2019-01-13T21:07:20.377Z,95440.60
2019-01-13T21:09:50.506Z,95439.77
2019-01-13T21:12:20.839Z,95440.20
2019-01-13T21:14:51.231Z,95455.07
2019-01-13T21:17:21.604Z,95451.25
2019-01-13T21:19:52.602Z,95465.70
2019-01-13T21:22:22.917Z,95453.80
2019-01-13T21:24:53.197Z,95449.16
2019-01-13T21:27:23.726Z,95436.84
2019-01-13T21:30:01.217Z,95424.50
2019-01-13T21:32:26.099Z,95415.56
2019-01-13T21:34:56.859Z,95420.23
2019-01-13T21:37:27.176Z,95432.97
2019-01-13T21:39:57.523Z,95412.59
2019-01-13T21:42:27.876Z,95416.41
2019-01-13T21:44:58.017Z,95424.50
2019-01-13T21:47:28.378Z,95418.52
2019-01-13T21:49:58.780Z,95409.98
2019-01-13T21:52:29.537Z,95413.36
2019-01-13T21:55:07.593Z,95412.52
2019-01-13T21:57:37.974Z,95409.06
2019-01-13T22:00:13.947Z,95423.14
2019-01-13T22:02:44.490Z,95409.20
2019-01-13T22:05:15.024Z,95409.20
2019-01-13T22:07:45.467Z,95401.58
2019-01-13T22:10:18.781Z,95385.42
2019-01-13T22:12:49.079Z,95374.79
2019-01-13T22:15:21.328Z,95381.17
2019-01-13T22:17:51.747Z,95374.81
2019-01-13T22:20:24.024Z,95375.64
2019-01-13T22:22:55.066Z,95380.31
2019-01-13T22:25:25.396Z,95384.13
2019-01-13T22:27:55.896Z,95388.36
2019-01-13T22:30:26.468Z,95399.86
2019-01-13T22:32:56.842Z,95395.59
2019-01-13T22:35:27.207Z,95399.45
2019-01-13T22:37:57.402Z,95396.53
2019-01-13T22:40:27.825Z,95397.82
2019-01-13T22:42:58.184Z,95400.84
2019-01-13T22:45:28.606Z,95387.22
2019-01-13T22:47:58.817Z,95390.18
2019-01-13T22:50:29.153Z,95392.33
2019-01-13T22:52:59.361Z,95391.88
2019-01-13T22:55:29.693Z,95424.70
2019-01-13T22:58:00.009Z,95406.37
2019-01-13T23:01:14.593Z,95406.38
2019-01-13T23:03:44.895Z,95405.53
2019-01-13T23:06:15.206Z,95408.49
2019-01-13T23:08:47.977Z,95401.69
2019-01-13T23:11:18.675Z,95406.80
2019-01-13T23:13:49.207Z,95399.14
2019-01-13T23:16:19.837Z,95397.44
2019-01-13T23:18:50.105Z,95400.39
2019-01-13T23:21:20.531Z,95396.56
2019-01-13T23:23:50.875Z,95400.82
2019-01-13T23:26:21.089Z,95411.89
2019-01-13T23:28:51.391Z,95405.94
2019-01-13T23:31:22.554Z,95426.40
2019-01-13T23:33:52.880Z,95425.97
2019-01-13T23:36:23.245Z,95438.73
2019-01-13T23:38:53.923Z,95417.02
2019-01-13T23:41:24.300Z,95405.95
2019-01-13T23:43:54.806Z,95421.70
2019-01-13T23:46:25.625Z,95438.72
2019-01-13T23:48:57.630Z,95429.34
2019-01-13T23:51:27.993Z,95440.39
2019-01-13T23:53:58.357Z,95456.08
2019-01-13T23:56:29.014Z,95452.22
2019-01-13T23:58:59.348Z,95459.86
